sensor_id;sensor_type;location;lat;lon;timestamp;P1;durP1;ratioP1;P2;durP2;ratioP2
38940;SDS011;43236;47.208;7.518;2023-03-01T00:01:47;37.25;;;18.35;;
38940;SDS011;43236;47.208;7.518;2023-03-01T00:04:35;36.47;;;17.90;;
38940;SDS011;43236;47.208;7.518;2023-03-01T00:07:22;31.38;;;17.25;;
38940;SDS011;43236;47.208;7.518;2023-03-01T00:10:10;34.67;;;16.95;;
38940;SDS011;43236;47.208;7.518;2023-03-01T00:12:57;34.25;;;18.25;;
38940;SDS011;43236;47.208;7.518;2023-03-01T00:15:44;32.40;;;17.58;;
38940;SDS011;43236;47.208;7.518;2023-03-01T00:18:31;34.78;;;18.23;;
38940;SDS011;43236;47.208;7.518;2023-03-01T00:21:21;32.55;;;18.13;;
38940;SDS011;43236;47.208;7.518;2023-03-01T00:24:08;33.97;;;18.35;;
38940;SDS011;43236;47.208;7.518;2023-03-01T00:26:56;33.88;;;18.02;;
38940;SDS011;43236;47.208;7.518;2023-03-01T00:29:43;36.35;;;17.60;;
38940;SDS011;43236;47.208;7.518;2023-03-01T00:32:30;36.58;;;17.73;;
38940;SDS011;43236;47.208;7.518;2023-03-01T00:35:17;37.40;;;17.45;;
38940;SDS011;43236;47.208;7.518;2023-03-01T00:38:06;35.22;;;18.75;;
38940;SDS011;43236;47.208;7.518;2023-03-01T00:40:53;34.00;;;18.45;;
38940;SDS011;43236;47.208;7.518;2023-03-01T00:43:40;31.67;;;16.77;;
38940;SDS011;43236;47.208;7.518;2023-03-01T00:46:28;31.45;;;16.88;;
38940;SDS011;43236;47.208;7.518;2023-03-01T00:49:15;34.95;;;17.83;;
38940;SDS011;43236;47.208;7.518;2023-03-01T00:52:02;33.80;;;18.55;;
38940;SDS011;43236;47.208;7.518;2023-03-01T00:54:53;38.15;;;18.77;;
38940;SDS011;43236;47.208;7.518;2023-03-01T00:57:40;33.70;;;18.27;;
38940;SDS011;43236;47.208;7.518;2023-03-01T01:00:27;39.17;;;19.88;;
38940;SDS011;43236;47.208;7.518;2023-03-01T01:03:14;32.63;;;18.20;;
38940;SDS011;43236;47.208;7.518;2023-03-01T01:06:01;34.95;;;17.50;;
38940;SDS011;43236;47.208;7.518;2023-03-01T01:08:54;36.35;;;17.60;;
38940;SDS011;43236;47.208;7.518;2023-03-01T01:11:43;34.00;;;17.75;;
38940;SDS011;43236;47.208;7.518;2023-03-01T01:14:31;34.75;;;18.30;;
38940;SDS011;43236;47.208;7.518;2023-03-01T01:17:19;33.20;;;17.00;;
38940;SDS011;43236;47.208;7.518;2023-03-01T01:20:06;31.98;;;17.58;;
38940;SDS011;43236;47.208;7.518;2023-03-01T01:22:54;33.88;;;17.20;;
38940;SDS011;43236;47.208;7.518;2023-03-01T01:25:41;38.17;;;17.30;;
38940;SDS011;43236;47.208;7.518;2023-03-01T01:28:30;34.72;;;17.35;;
38940;SDS011;43236;47.208;7.518;2023-03-01T01:31:17;32.85;;;17.10;;
38940;SDS011;43236;47.208;7.518;2023-03-01T01:34:06;32.65;;;17.05;;
38940;SDS011;43236;47.208;7.518;2023-03-01T01:36:54;36.05;;;16.38;;
38940;SDS011;43236;47.208;7.518;2023-03-01T01:39:41;31.65;;;17.73;;
38940;SDS011;43236;47.208;7.518;2023-03-01T01:42:29;33.13;;;16.23;;
38940;SDS011;43236;47.208;7.518;2023-03-01T01:45:26;28.88;;;16.25;;
38940;SDS011;43236;47.208;7.518;2023-03-01T01:48:16;36.20;;;17.85;;
38940;SDS011;43236;47.208;7.518;2023-03-01T01:51:07;34.13;;;17.20;;
38940;SDS011;43236;47.208;7.518;2023-03-01T01:53:59;30.98;;;16.77;;
38940;SDS011;43236;47.208;7.518;2023-03-01T01:56:48;36.22;;;17.48;;
38940;SDS011;43236;47.208;7.518;2023-03-01T01:59:38;33.28;;;17.42;;
38940;SDS011;43236;47.208;7.518;2023-03-01T02:02:28;32.92;;;17.75;;
38940;SDS011;43236;47.208;7.518;2023-03-01T02:05:25;35.42;;;17.33;;
38940;SDS011;43236;47.208;7.518;2023-03-01T02:08:18;34.92;;;17.38;;
38940;SDS011;43236;47.208;7.518;2023-03-01T02:11:07;31.98;;;15.98;;
38940;SDS011;43236;47.208;7.518;2023-03-01T02:13:56;33.30;;;16.63;;
38940;SDS011;43236;47.208;7.518;2023-03-01T02:16:43;35.85;;;17.92;;
38940;SDS011;43236;47.208;7.518;2023-03-01T02:19:34;31.90;;;17.42;;
38940;SDS011;43236;47.208;7.518;2023-03-01T02:22:31;32.53;;;17.63;;
38940;SDS011;43236;47.208;7.518;2023-03-01T02:25:27;32.42;;;16.13;;
38940;SDS011;43236;47.208;7.518;2023-03-01T02:28:31;34.63;;;17.15;;
38940;SDS011;43236;47.208;7.518;2023-03-01T02:31:20;35.78;;;17.05;;
38940;SDS011;43236;47.208;7.518;2023-03-01T02:34:25;34.67;;;17.88;;
38940;SDS011;43236;47.208;7.518;2023-03-01T02:37:14;33.80;;;16.92;;
38940;SDS011;43236;47.208;7.518;2023-03-01T02:40:10;34.00;;;17.27;;
38940;SDS011;43236;47.208;7.518;2023-03-01T02:43:02;35.00;;;17.08;;
38940;SDS011;43236;47.208;7.518;2023-03-01T02:45:56;33.70;;;17.15;;
38940;SDS011;43236;47.208;7.518;2023-03-01T02:48:45;33.45;;;17.13;;
38940;SDS011;43236;47.208;7.518;2023-03-01T02:51:39;33.50;;;17.05;;
38940;SDS011;43236;47.208;7.518;2023-03-01T02:54:36;31.85;;;15.82;;
38940;SDS011;43236;47.208;7.518;2023-03-01T02:57:28;36.03;;;17.23;;
38940;SDS011;43236;47.208;7.518;2023-03-01T03:00:18;30.40;;;16.10;;
38940;SDS011;43236;47.208;7.518;2023-03-01T03:03:09;33.08;;;16.75;;
38940;SDS011;43236;47.208;7.518;2023-03-01T03:06:00;32.17;;;17.15;;
38940;SDS011;43236;47.208;7.518;2023-03-01T03:08:47;33.75;;;17.77;;
38940;SDS011;43236;47.208;7.518;2023-03-01T03:11:34;32.88;;;16.75;;
38940;SDS011;43236;47.208;7.518;2023-03-01T03:14:22;34.30;;;17.33;;
38940;SDS011;43236;47.208;7.518;2023-03-01T03:17:09;32.20;;;17.55;;
38940;SDS011;43236;47.208;7.518;2023-03-01T03:19:57;35.60;;;17.23;;
38940;SDS011;43236;47.208;7.518;2023-03-01T03:22:44;33.33;;;18.38;;
38940;SDS011;43236;47.208;7.518;2023-03-01T03:25:31;32.30;;;16.85;;
38940;SDS011;43236;47.208;7.518;2023-03-01T03:28:23;34.97;;;18.20;;
38940;SDS011;43236;47.208;7.518;2023-03-01T03:31:10;35.05;;;17.70;;
38940;SDS011;43236;47.208;7.518;2023-03-01T03:33:57;36.17;;;18.40;;
38940;SDS011;43236;47.208;7.518;2023-03-01T03:36:45;38.22;;;18.13;;
38940;SDS011;43236;47.208;7.518;2023-03-01T03:39:33;38.15;;;18.63;;
38940;SDS011;43236;47.208;7.518;2023-03-01T03:42:21;37.80;;;18.55;;
38940;SDS011;43236;47.208;7.518;2023-03-01T03:45:08;36.35;;;17.67;;
38940;SDS011;43236;47.208;7.518;2023-03-01T03:47:55;34.78;;;18.05;;
38940;SDS011;43236;47.208;7.518;2023-03-01T03:50:46;34.75;;;17.17;;
38940;SDS011;43236;47.208;7.518;2023-03-01T03:53:36;32.35;;;17.23;;
38940;SDS011;43236;47.208;7.518;2023-03-01T03:56:23;32.80;;;16.77;;
38940;SDS011;43236;47.208;7.518;2023-03-01T03:59:11;37.50;;;18.42;;
38940;SDS011;43236;47.208;7.518;2023-03-01T04:01:58;32.50;;;17.30;;
38940;SDS011;43236;47.208;7.518;2023-03-01T04:04:45;37.25;;;18.25;;
38940;SDS011;43236;47.208;7.518;2023-03-01T04:07:35;36.85;;;18.20;;
38940;SDS011;43236;47.208;7.518;2023-03-01T04:10:24;36.55;;;18.65;;
38940;SDS011;43236;47.208;7.518;2023-03-01T04:13:12;36.00;;;17.60;;
38940;SDS011;43236;47.208;7.518;2023-03-01T04:16:00;34.95;;;16.85;;
38940;SDS011;43236;47.208;7.518;2023-03-01T04:18:47;34.78;;;18.10;;
38940;SDS011;43236;47.208;7.518;2023-03-01T04:21:34;36.47;;;17.65;;
38940;SDS011;43236;47.208;7.518;2023-03-01T04:24:22;39.00;;;18.85;;
38940;SDS011;43236;47.208;7.518;2023-03-01T04:27:10;37.53;;;17.77;;
38940;SDS011;43236;47.208;7.518;2023-03-01T04:29:58;34.60;;;18.63;;
38940;SDS011;43236;47.208;7.518;2023-03-01T04:32:45;35.92;;;16.75;;
38940;SDS011;43236;47.208;7.518;2023-03-01T04:35:32;37.63;;;16.27;;
38940;SDS011;43236;47.208;7.518;2023-03-01T04:38:20;34.17;;;18.13;;
38940;SDS011;43236;47.208;7.518;2023-03-01T04:41:09;35.25;;;17.73;;
38940;SDS011;43236;47.208;7.518;2023-03-01T04:43:58;35.15;;;18.20;;
38940;SDS011;43236;47.208;7.518;2023-03-01T04:46:45;35.17;;;17.90;;
38940;SDS011;43236;47.208;7.518;2023-03-01T04:49:35;32.63;;;17.45;;
38940;SDS011;43236;47.208;7.518;2023-03-01T04:52:22;36.65;;;18.10;;
38940;SDS011;43236;47.208;7.518;2023-03-01T04:55:10;34.97;;;18.30;;
38940;SDS011;43236;47.208;7.518;2023-03-01T04:57:57;37.40;;;18.00;;
38940;SDS011;43236;47.208;7.518;2023-03-01T05:00:45;32.38;;;17.88;;
38940;SDS011;43236;47.208;7.518;2023-03-01T05:03:32;36.55;;;18.98;;
38940;SDS011;43236;47.208;7.518;2023-03-01T05:06:20;36.95;;;18.23;;
38940;SDS011;43236;47.208;7.518;2023-03-01T05:09:07;39.75;;;19.02;;
38940;SDS011;43236;47.208;7.518;2023-03-01T05:11:56;33.08;;;18.00;;
38940;SDS011;43236;47.208;7.518;2023-03-01T05:14:43;39.03;;;18.85;;
38940;SDS011;43236;47.208;7.518;2023-03-01T05:17:32;38.45;;;19.50;;
38940;SDS011;43236;47.208;7.518;2023-03-01T05:20:19;37.40;;;18.30;;
38940;SDS011;43236;47.208;7.518;2023-03-01T05:23:08;42.05;;;19.63;;
38940;SDS011;43236;47.208;7.518;2023-03-01T05:25:57;41.63;;;19.73;;
38940;SDS011;43236;47.208;7.518;2023-03-01T05:28:44;42.72;;;19.75;;
38940;SDS011;43236;47.208;7.518;2023-03-01T05:31:32;39.45;;;19.40;;
38940;SDS011;43236;47.208;7.518;2023-03-01T05:34:22;41.85;;;20.00;;
38940;SDS011;43236;47.208;7.518;2023-03-01T05:37:10;37.05;;;19.00;;
38940;SDS011;43236;47.208;7.518;2023-03-01T05:39:57;42.65;;;20.42;;
38940;SDS011;43236;47.208;7.518;2023-03-01T05:42:45;36.40;;;19.50;;
38940;SDS011;43236;47.208;7.518;2023-03-01T05:45:35;41.28;;;20.50;;
38940;SDS011;43236;47.208;7.518;2023-03-01T05:48:23;42.67;;;20.08;;
38940;SDS011;43236;47.208;7.518;2023-03-01T05:51:11;42.50;;;19.33;;
38940;SDS011;43236;47.208;7.518;2023-03-01T05:53:58;43.10;;;20.00;;
38940;SDS011;43236;47.208;7.518;2023-03-01T05:56:45;42.72;;;20.10;;
38940;SDS011;43236;47.208;7.518;2023-03-01T05:59:32;42.78;;;20.15;;
38940;SDS011;43236;47.208;7.518;2023-03-01T06:02:20;41.33;;;20.20;;
38940;SDS011;43236;47.208;7.518;2023-03-01T06:05:08;41.97;;;20.02;;
38940;SDS011;43236;47.208;7.518;2023-03-01T06:07:59;45.00;;;20.05;;
38940;SDS011;43236;47.208;7.518;2023-03-01T06:10:47;43.20;;;20.40;;
38940;SDS011;43236;47.208;7.518;2023-03-01T06:13:34;43.03;;;20.33;;
38940;SDS011;43236;47.208;7.518;2023-03-01T06:16:21;45.55;;;21.55;;
38940;SDS011;43236;47.208;7.518;2023-03-01T06:19:08;43.33;;;20.83;;
38940;SDS011;43236;47.208;7.518;2023-03-01T06:21:55;42.67;;;20.65;;
38940;SDS011;43236;47.208;7.518;2023-03-01T06:24:43;41.58;;;20.73;;
38940;SDS011;43236;47.208;7.518;2023-03-01T06:27:30;42.70;;;21.42;;
38940;SDS011;43236;47.208;7.518;2023-03-01T06:30:18;42.80;;;21.30;;
38940;SDS011;43236;47.208;7.518;2023-03-01T06:33:06;38.42;;;20.25;;
38940;SDS011;43236;47.208;7.518;2023-03-01T06:35:54;42.22;;;21.30;;
38940;SDS011;43236;47.208;7.518;2023-03-01T06:38:42;42.30;;;21.63;;
38940;SDS011;43236;47.208;7.518;2023-03-01T06:41:30;52.28;;;21.95;;
38940;SDS011;43236;47.208;7.518;2023-03-01T06:44:18;47.65;;;21.40;;
38940;SDS011;43236;47.208;7.518;2023-03-01T06:47:05;45.13;;;21.65;;
38940;SDS011;43236;47.208;7.518;2023-03-01T06:49:52;42.85;;;21.38;;
38940;SDS011;43236;47.208;7.518;2023-03-01T06:52:39;44.92;;;20.88;;
38940;SDS011;43236;47.208;7.518;2023-03-01T06:55:26;42.75;;;21.30;;
38940;SDS011;43236;47.208;7.518;2023-03-01T06:58:15;41.13;;;21.25;;
38940;SDS011;43236;47.208;7.518;2023-03-01T07:01:04;42.78;;;19.77;;
38940;SDS011;43236;47.208;7.518;2023-03-01T07:03:52;43.35;;;21.27;;
38940;SDS011;43236;47.208;7.518;2023-03-01T07:06:39;46.60;;;21.63;;
38940;SDS011;43236;47.208;7.518;2023-03-01T07:09:26;45.17;;;21.52;;
38940;SDS011;43236;47.208;7.518;2023-03-01T07:12:13;40.30;;;20.10;;
38940;SDS011;43236;47.208;7.518;2023-03-01T07:15:02;44.33;;;21.42;;
38940;SDS011;43236;47.208;7.518;2023-03-01T07:17:49;41.15;;;19.98;;
38940;SDS011;43236;47.208;7.518;2023-03-01T07:20:36;48.30;;;22.23;;
38940;SDS011;43236;47.208;7.518;2023-03-01T07:23:23;43.60;;;21.15;;
38940;SDS011;43236;47.208;7.518;2023-03-01T07:26:11;43.45;;;20.33;;
38940;SDS011;43236;47.208;7.518;2023-03-01T07:28:58;46.03;;;21.23;;
38940;SDS011;43236;47.208;7.518;2023-03-01T07:31:47;46.75;;;21.27;;
38940;SDS011;43236;47.208;7.518;2023-03-01T07:34:33;43.28;;;21.27;;
38940;SDS011;43236;47.208;7.518;2023-03-01T07:37:20;43.42;;;21.52;;
38940;SDS011;43236;47.208;7.518;2023-03-01T07:40:08;45.05;;;20.65;;
38940;SDS011;43236;47.208;7.518;2023-03-01T07:42:56;43.50;;;20.63;;
38940;SDS011;43236;47.208;7.518;2023-03-01T07:45:43;41.65;;;19.98;;
38940;SDS011;43236;47.208;7.518;2023-03-01T07:48:32;44.45;;;21.80;;
38940;SDS011;43236;47.208;7.518;2023-03-01T07:51:19;44.22;;;20.23;;
38940;SDS011;43236;47.208;7.518;2023-03-01T07:54:06;42.88;;;21.58;;
38940;SDS011;43236;47.208;7.518;2023-03-01T07:56:53;47.65;;;21.35;;
38940;SDS011;43236;47.208;7.518;2023-03-01T07:59:40;43.22;;;21.27;;
38940;SDS011;43236;47.208;7.518;2023-03-01T08:02:27;45.33;;;21.15;;
38940;SDS011;43236;47.208;7.518;2023-03-01T08:05:16;41.63;;;20.27;;
38940;SDS011;43236;47.208;7.518;2023-03-01T08:08:03;42.05;;;19.33;;
38940;SDS011;43236;47.208;7.518;2023-03-01T08:10:51;40.30;;;20.50;;
38940;SDS011;43236;47.208;7.518;2023-03-01T08:13:38;42.38;;;21.00;;
38940;SDS011;43236;47.208;7.518;2023-03-01T08:16:25;43.63;;;21.50;;
38940;SDS011;43236;47.208;7.518;2023-03-01T08:19:12;44.85;;;21.10;;
38940;SDS011;43236;47.208;7.518;2023-03-01T08:22:01;44.42;;;19.73;;
38940;SDS011;43236;47.208;7.518;2023-03-01T08:24:48;45.40;;;21.27;;
38940;SDS011;43236;47.208;7.518;2023-03-01T08:27:35;37.47;;;19.58;;
38940;SDS011;43236;47.208;7.518;2023-03-01T08:30:22;42.55;;;20.23;;
38940;SDS011;43236;47.208;7.518;2023-03-01T08:33:10;43.10;;;20.60;;
38940;SDS011;43236;47.208;7.518;2023-03-01T08:36:03;42.22;;;19.33;;
38940;SDS011;43236;47.208;7.518;2023-03-01T08:38:53;43.45;;;20.25;;
38940;SDS011;43236;47.208;7.518;2023-03-01T08:41:41;42.58;;;19.48;;
38940;SDS011;43236;47.208;7.518;2023-03-01T08:44:28;41.67;;;20.73;;
38940;SDS011;43236;47.208;7.518;2023-03-01T08:47:15;41.60;;;20.40;;
38940;SDS011;43236;47.208;7.518;2023-03-01T08:50:02;46.80;;;20.55;;
38940;SDS011;43236;47.208;7.518;2023-03-01T08:52:50;40.63;;;19.92;;
38940;SDS011;43236;47.208;7.518;2023-03-01T08:55:38;43.50;;;19.70;;
38940;SDS011;43236;47.208;7.518;2023-03-01T08:58:25;41.92;;;19.80;;
38940;SDS011;43236;47.208;7.518;2023-03-01T09:01:14;41.83;;;19.38;;
38940;SDS011;43236;47.208;7.518;2023-03-01T09:04:02;42.65;;;20.85;;
38940;SDS011;43236;47.208;7.518;2023-03-01T09:06:49;46.38;;;20.30;;
38940;SDS011;43236;47.208;7.518;2023-03-01T09:09:36;40.22;;;19.63;;
38940;SDS011;43236;47.208;7.518;2023-03-01T09:12:25;35.95;;;18.40;;
38940;SDS011;43236;47.208;7.518;2023-03-01T09:15:12;45.55;;;21.15;;
38940;SDS011;43236;47.208;7.518;2023-03-01T09:17:59;44.97;;;19.95;;
38940;SDS011;43236;47.208;7.518;2023-03-01T09:20:46;45.25;;;21.10;;
38940;SDS011;43236;47.208;7.518;2023-03-01T09:23:33;43.38;;;20.88;;
38940;SDS011;43236;47.208;7.518;2023-03-01T09:26:24;42.58;;;20.35;;
38940;SDS011;43236;47.208;7.518;2023-03-01T09:29:12;44.50;;;20.52;;
38940;SDS011;43236;47.208;7.518;2023-03-01T09:32:00;39.65;;;19.40;;
38940;SDS011;43236;47.208;7.518;2023-03-01T09:34:47;39.00;;;19.17;;
38940;SDS011;43236;47.208;7.518;2023-03-01T09:37:52;42.10;;;19.77;;
38940;SDS011;43236;47.208;7.518;2023-03-01T09:40:41;42.65;;;20.20;;
38940;SDS011;43236;47.208;7.518;2023-03-01T09:43:34;40.50;;;19.88;;
38940;SDS011;43236;47.208;7.518;2023-03-01T09:46:31;42.03;;;19.48;;
38940;SDS011;43236;47.208;7.518;2023-03-01T09:49:27;40.40;;;19.73;;
38940;SDS011;43236;47.208;7.518;2023-03-01T09:52:19;44.78;;;19.27;;
38940;SDS011;43236;47.208;7.518;2023-03-01T09:55:13;39.10;;;19.23;;
38940;SDS011;43236;47.208;7.518;2023-03-01T09:58:04;39.92;;;19.50;;
38940;SDS011;43236;47.208;7.518;2023-03-01T10:01:10;47.63;;;18.98;;
38940;SDS011;43236;47.208;7.518;2023-03-01T10:04:13;44.03;;;20.10;;
38940;SDS011;43236;47.208;7.518;2023-03-01T10:07:27;43.30;;;19.80;;
38940;SDS011;43236;47.208;7.518;2023-03-01T10:10:22;43.63;;;20.65;;
38940;SDS011;43236;47.208;7.518;2023-03-01T10:13:21;40.95;;;19.52;;
38940;SDS011;43236;47.208;7.518;2023-03-01T10:16:13;43.83;;;19.70;;
38940;SDS011;43236;47.208;7.518;2023-03-01T10:19:03;36.67;;;19.77;;
38940;SDS011;43236;47.208;7.518;2023-03-01T10:21:53;42.25;;;19.73;;
38940;SDS011;43236;47.208;7.518;2023-03-01T10:24:44;41.13;;;19.05;;
38940;SDS011;43236;47.208;7.518;2023-03-01T10:27:34;43.30;;;19.90;;
38940;SDS011;43236;47.208;7.518;2023-03-01T10:30:32;40.83;;;19.73;;
38940;SDS011;43236;47.208;7.518;2023-03-01T10:33:24;43.10;;;19.85;;
38940;SDS011;43236;47.208;7.518;2023-03-01T10:36:15;41.20;;;18.00;;
38940;SDS011;43236;47.208;7.518;2023-03-01T10:39:05;45.53;;;21.73;;
38940;SDS011;43236;47.208;7.518;2023-03-01T10:42:00;44.38;;;19.42;;
38940;SDS011;43236;47.208;7.518;2023-03-01T10:44:48;40.45;;;19.88;;
38940;SDS011;43236;47.208;7.518;2023-03-01T10:47:35;41.38;;;20.23;;
38940;SDS011;43236;47.208;7.518;2023-03-01T10:50:23;41.47;;;18.80;;
38940;SDS011;43236;47.208;7.518;2023-03-01T10:53:23;46.25;;;21.25;;
38940;SDS011;43236;47.208;7.518;2023-03-01T10:56:15;44.65;;;19.83;;
38940;SDS011;43236;47.208;7.518;2023-03-01T10:59:03;44.05;;;18.85;;
38940;SDS011;43236;47.208;7.518;2023-03-01T11:02:02;40.00;;;20.55;;
38940;SDS011;43236;47.208;7.518;2023-03-01T11:05:13;45.97;;;19.60;;
38940;SDS011;43236;47.208;7.518;2023-03-01T11:08:04;45.30;;;19.20;;
38940;SDS011;43236;47.208;7.518;2023-03-01T11:10:51;42.95;;;18.42;;
38940;SDS011;43236;47.208;7.518;2023-03-01T11:13:56;42.35;;;19.70;;
38940;SDS011;43236;47.208;7.518;2023-03-01T11:16:45;41.65;;;19.23;;
38940;SDS011;43236;47.208;7.518;2023-03-01T11:19:34;42.67;;;20.02;;
38940;SDS011;43236;47.208;7.518;2023-03-01T11:22:21;39.80;;;19.20;;
38940;SDS011;43236;47.208;7.518;2023-03-01T11:25:10;44.13;;;18.85;;
38940;SDS011;43236;47.208;7.518;2023-03-01T11:28:00;40.95;;;18.80;;
38940;SDS011;43236;47.208;7.518;2023-03-01T11:30:53;40.75;;;17.75;;
38940;SDS011;43236;47.208;7.518;2023-03-01T11:33:43;41.65;;;19.30;;
38940;SDS011;43236;47.208;7.518;2023-03-01T11:36:34;39.83;;;18.85;;
38940;SDS011;43236;47.208;7.518;2023-03-01T11:39:26;42.78;;;18.90;;
38940;SDS011;43236;47.208;7.518;2023-03-01T11:42:20;42.08;;;18.50;;
38940;SDS011;43236;47.208;7.518;2023-03-01T11:45:12;40.88;;;19.15;;
38940;SDS011;43236;47.208;7.518;2023-03-01T11:48:07;44.10;;;18.90;;
38940;SDS011;43236;47.208;7.518;2023-03-01T11:51:09;46.65;;;19.73;;
38940;SDS011;43236;47.208;7.518;2023-03-01T11:54:06;42.40;;;18.60;;
38940;SDS011;43236;47.208;7.518;2023-03-01T11:57:05;37.85;;;19.00;;
38940;SDS011;43236;47.208;7.518;2023-03-01T12:00:02;43.45;;;18.67;;
38940;SDS011;43236;47.208;7.518;2023-03-01T12:03:25;39.45;;;18.25;;
38940;SDS011;43236;47.208;7.518;2023-03-01T12:06:24;38.90;;;18.58;;
38940;SDS011;43236;47.208;7.518;2023-03-01T12:09:26;46.33;;;19.20;;
38940;SDS011;43236;47.208;7.518;2023-03-01T12:12:30;39.28;;;18.10;;
38940;SDS011;43236;47.208;7.518;2023-03-01T12:15:30;42.08;;;19.45;;
38940;SDS011;43236;47.208;7.518;2023-03-01T12:18:34;39.53;;;18.42;;
38940;SDS011;43236;47.208;7.518;2023-03-01T12:21:42;37.88;;;18.20;;
38940;SDS011;43236;47.208;7.518;2023-03-01T12:24:53;43.70;;;18.33;;
38940;SDS011;43236;47.208;7.518;2023-03-01T12:28:01;36.63;;;17.83;;
38940;SDS011;43236;47.208;7.518;2023-03-01T12:31:05;36.58;;;17.98;;
38940;SDS011;43236;47.208;7.518;2023-03-01T12:34:23;41.47;;;17.80;;
38940;SDS011;43236;47.208;7.518;2023-03-01T12:37:21;38.78;;;17.48;;
38940;SDS011;43236;47.208;7.518;2023-03-01T12:40:21;37.28;;;17.80;;
38940;SDS011;43236;47.208;7.518;2023-03-01T12:43:22;40.08;;;18.90;;
38940;SDS011;43236;47.208;7.518;2023-03-01T12:46:21;40.50;;;18.70;;
38940;SDS011;43236;47.208;7.518;2023-03-01T12:49:21;41.67;;;19.25;;
38940;SDS011;43236;47.208;7.518;2023-03-01T12:52:14;39.88;;;18.83;;
38940;SDS011;43236;47.208;7.518;2023-03-01T12:55:16;38.08;;;18.05;;
38940;SDS011;43236;47.208;7.518;2023-03-01T12:58:13;42.83;;;19.33;;
38940;SDS011;43236;47.208;7.518;2023-03-01T13:01:14;44.22;;;19.60;;
38940;SDS011;43236;47.208;7.518;2023-03-01T13:04:17;43.08;;;20.10;;
38940;SDS011;43236;47.208;7.518;2023-03-01T13:07:16;40.97;;;18.13;;
38940;SDS011;43236;47.208;7.518;2023-03-01T13:10:16;41.70;;;18.55;;
38940;SDS011;43236;47.208;7.518;2023-03-01T13:13:14;45.40;;;21.15;;
38940;SDS011;43236;47.208;7.518;2023-03-01T13:16:20;46.83;;;21.92;;
38940;SDS011;43236;47.208;7.518;2023-03-01T13:19:26;41.08;;;20.05;;
38940;SDS011;43236;47.208;7.518;2023-03-01T13:22:25;40.08;;;18.73;;
38940;SDS011;43236;47.208;7.518;2023-03-01T13:25:15;41.67;;;18.65;;
38940;SDS011;43236;47.208;7.518;2023-03-01T13:37:41;40.38;;;18.50;;
38940;SDS011;43236;47.208;7.518;2023-03-01T13:43:44;48.65;;;20.55;;
38940;SDS011;43236;47.208;7.518;2023-03-01T13:46:32;45.50;;;20.00;;
38940;SDS011;43236;47.208;7.518;2023-03-01T13:49:20;39.13;;;18.63;;
38940;SDS011;43236;47.208;7.518;2023-03-01T13:52:21;41.38;;;18.23;;
38940;SDS011;43236;47.208;7.518;2023-03-01T13:55:27;41.67;;;19.90;;
38940;SDS011;43236;47.208;7.518;2023-03-01T13:58:22;41.67;;;19.00;;
38940;SDS011;43236;47.208;7.518;2023-03-01T14:01:18;39.55;;;17.20;;
38940;SDS011;43236;47.208;7.518;2023-03-01T14:04:18;47.00;;;18.42;;
38940;SDS011;43236;47.208;7.518;2023-03-01T14:07:11;35.58;;;17.15;;
38940;SDS011;43236;47.208;7.518;2023-03-01T14:10:01;40.90;;;19.23;;
38940;SDS011;43236;47.208;7.518;2023-03-01T14:12:50;39.20;;;17.58;;
38940;SDS011;43236;47.208;7.518;2023-03-01T14:15:42;37.65;;;17.80;;
38940;SDS011;43236;47.208;7.518;2023-03-01T14:18:38;40.42;;;17.98;;
38940;SDS011;43236;47.208;7.518;2023-03-01T14:21:30;36.20;;;17.35;;
38940;SDS011;43236;47.208;7.518;2023-03-01T14:24:18;39.17;;;18.50;;
38940;SDS011;43236;47.208;7.518;2023-03-01T14:27:10;37.55;;;17.05;;
38940;SDS011;43236;47.208;7.518;2023-03-01T14:29:59;36.00;;;16.52;;
38940;SDS011;43236;47.208;7.518;2023-03-01T14:32:52;39.58;;;18.13;;
38940;SDS011;43236;47.208;7.518;2023-03-01T14:35:40;36.17;;;17.13;;
38940;SDS011;43236;47.208;7.518;2023-03-01T14:38:31;37.40;;;18.00;;
38940;SDS011;43236;47.208;7.518;2023-03-01T14:41:21;38.95;;;19.05;;
38940;SDS011;43236;47.208;7.518;2023-03-01T14:44:14;45.90;;;19.77;;
38940;SDS011;43236;47.208;7.518;2023-03-01T14:47:04;40.75;;;18.52;;
38940;SDS011;43236;47.208;7.518;2023-03-01T14:49:53;38.90;;;17.95;;
38940;SDS011;43236;47.208;7.518;2023-03-01T14:52:44;35.03;;;17.38;;
38940;SDS011;43236;47.208;7.518;2023-03-01T14:55:35;36.70;;;18.30;;
38940;SDS011;43236;47.208;7.518;2023-03-01T14:58:26;33.63;;;18.05;;
38940;SDS011;43236;47.208;7.518;2023-03-01T15:01:15;38.33;;;17.60;;
38940;SDS011;43236;47.208;7.518;2023-03-01T15:04:03;35.53;;;17.55;;
38940;SDS011;43236;47.208;7.518;2023-03-01T15:06:51;37.05;;;17.52;;
38940;SDS011;43236;47.208;7.518;2023-03-01T15:09:40;47.03;;;21.15;;
38940;SDS011;43236;47.208;7.518;2023-03-01T15:12:35;53.13;;;20.90;;
38940;SDS011;43236;47.208;7.518;2023-03-01T15:15:31;47.85;;;21.13;;
38940;SDS011;43236;47.208;7.518;2023-03-01T15:18:22;44.72;;;20.40;;
38940;SDS011;43236;47.208;7.518;2023-03-01T15:21:15;38.53;;;19.15;;
38940;SDS011;43236;47.208;7.518;2023-03-01T15:24:05;39.08;;;17.80;;
38940;SDS011;43236;47.208;7.518;2023-03-01T15:27:12;37.95;;;19.00;;
38940;SDS011;43236;47.208;7.518;2023-03-01T15:30:02;37.90;;;18.00;;
38940;SDS011;43236;47.208;7.518;2023-03-01T15:39:27;41.47;;;18.60;;
38940;SDS011;43236;47.208;7.518;2023-03-01T15:45:23;39.63;;;19.60;;
38940;SDS011;43236;47.208;7.518;2023-03-01T15:48:14;39.38;;;17.42;;
38940;SDS011;43236;47.208;7.518;2023-03-01T15:51:09;48.08;;;21.42;;
38940;SDS011;43236;47.208;7.518;2023-03-01T15:54:02;48.90;;;21.38;;
38940;SDS011;43236;47.208;7.518;2023-03-01T15:56:52;40.85;;;18.95;;
38940;SDS011;43236;47.208;7.518;2023-03-01T15:59:39;42.00;;;19.23;;
38940;SDS011;43236;47.208;7.518;2023-03-01T16:02:27;36.67;;;17.70;;
38940;SDS011;43236;47.208;7.518;2023-03-01T16:05:17;38.65;;;17.85;;
38940;SDS011;43236;47.208;7.518;2023-03-01T16:08:06;40.30;;;18.88;;
38940;SDS011;43236;47.208;7.518;2023-03-01T16:10:55;37.25;;;18.65;;
38940;SDS011;43236;47.208;7.518;2023-03-01T16:13:43;39.05;;;18.33;;
38940;SDS011;43236;47.208;7.518;2023-03-01T16:16:30;42.55;;;19.95;;
38940;SDS011;43236;47.208;7.518;2023-03-01T16:19:17;43.15;;;18.80;;
38940;SDS011;43236;47.208;7.518;2023-03-01T16:22:04;39.70;;;17.85;;
38940;SDS011;43236;47.208;7.518;2023-03-01T16:24:51;40.55;;;20.80;;
38940;SDS011;43236;47.208;7.518;2023-03-01T16:27:41;36.22;;;19.63;;
38940;SDS011;43236;47.208;7.518;2023-03-01T16:30:28;43.55;;;21.98;;
38940;SDS011;43236;47.208;7.518;2023-03-01T16:33:15;44.30;;;23.10;;
38940;SDS011;43236;47.208;7.518;2023-03-01T16:36:06;38.85;;;18.45;;
38940;SDS011;43236;47.208;7.518;2023-03-01T16:38:55;41.33;;;18.42;;
38940;SDS011;43236;47.208;7.518;2023-03-01T16:41:45;36.78;;;18.45;;
38940;SDS011;43236;47.208;7.518;2023-03-01T16:44:33;44.58;;;19.95;;
38940;SDS011;43236;47.208;7.518;2023-03-01T16:47:21;42.03;;;20.30;;
38940;SDS011;43236;47.208;7.518;2023-03-01T16:50:08;76.50;;;42.10;;
38940;SDS011;43236;47.208;7.518;2023-03-01T16:52:56;47.95;;;21.30;;
38940;SDS011;43236;47.208;7.518;2023-03-01T16:55:43;38.95;;;20.20;;
38940;SDS011;43236;47.208;7.518;2023-03-01T16:58:30;39.13;;;18.70;;
38940;SDS011;43236;47.208;7.518;2023-03-01T17:01:19;80.80;;;39.95;;